createdAt,value
2019-04-23T00:00:23.367Z,12.33
2019-04-23T00:10:24.707Z,12.20
2019-04-23T00:20:25.154Z,11.98
2019-04-23T00:30:36.043Z,11.89
2019-04-23T00:50:28.115Z,11.57
2019-04-23T01:00:33.426Z,11.43
2019-04-23T01:10:19.726Z,11.31
2019-04-23T01:20:20.398Z,11.12
2019-04-23T01:30:27.322Z,10.96
2019-04-23T01:50:36.243Z,10.57
2019-04-23T02:00:28.531Z,10.32
2019-04-23T02:10:39.070Z,10.07
2019-04-23T02:20:27.417Z,9.89
2019-04-23T02:30:50.489Z,9.45
2019-04-23T02:40:37.074Z,8.87
2019-04-23T02:50:37.560Z,9.34
2019-04-23T03:00:37.808Z,9.02
2019-04-23T03:10:40.109Z,9.24
2019-04-23T03:20:47.717Z,8.92
2019-04-23T03:30:57.821Z,8.52
2019-04-23T03:40:25.598Z,8.89
2019-04-23T04:00:36.830Z,9.11
2019-04-23T04:10:43.985Z,8.95
2019-04-23T04:20:39.068Z,9.48
2019-04-23T04:30:27.063Z,9.42
2019-04-23T04:40:28.758Z,9.29
2019-04-23T04:50:23.913Z,9.50
2019-04-23T05:00:42.161Z,9.70
2019-04-23T05:20:25.772Z,10.27
2019-04-23T05:30:21.138Z,10.50
2019-04-23T05:40:44.781Z,10.39
2019-04-23T05:50:40.600Z,10.62
2019-04-23T06:00:23.448Z,10.88
2019-04-23T06:20:34.764Z,11.85
2019-04-23T06:30:25.539Z,12.33
2019-04-23T06:40:33.418Z,12.64
2019-04-23T06:50:26.940Z,13.26
2019-04-23T07:10:31.456Z,14.39
2019-04-23T07:20:27.066Z,14.07
2019-04-23T08:00:34.276Z,15.06
2019-04-23T08:20:34.783Z,16.43
2019-04-23T08:30:23.786Z,17.12
2019-04-23T08:40:33.396Z,17.89
2019-04-23T08:50:31.964Z,18.48
2019-04-23T09:00:32.499Z,19.42
2019-04-23T09:10:33.738Z,19.12
2019-04-23T09:19:02.465Z,20.83
2019-04-23T09:20:26.038Z,20.77
2019-04-23T09:40:41.168Z,22.59
2019-04-23T09:50:36.334Z,22.13
2019-04-23T10:10:03.551Z,22.96
2019-04-23T10:20:08.661Z,21.78
2019-04-23T10:30:08.132Z,21.54
2019-04-23T10:40:13.125Z,22.64
2019-04-23T11:00:29.575Z,22.61
2019-04-23T11:10:25.381Z,23.22
2019-04-23T11:20:40.996Z,22.02
2019-04-23T11:40:20.737Z,22.40
2019-04-23T11:51:04.291Z,22.17
2019-04-23T12:00:40.130Z,23.03
2019-04-23T12:10:37.574Z,24.10
2019-04-23T12:40:24.630Z,23.50
2019-04-23T12:50:44.660Z,24.12
2019-04-23T13:00:30.638Z,23.08
2019-04-23T13:40:37.270Z,23.10
2019-04-23T14:10:33.602Z,22.34
2019-04-23T14:20:31.430Z,22.38
2019-04-23T14:30:36.010Z,22.19
2019-04-23T14:40:32.551Z,21.66
2019-04-23T14:50:31.783Z,21.41
2019-04-23T15:00:32.582Z,21.44
2019-04-23T15:10:31.230Z,21.39
2019-04-23T15:20:35.581Z,21.28
2019-04-23T15:30:26.991Z,20.98
2019-04-23T15:40:20.800Z,20.95
2019-04-23T15:50:26.228Z,20.68
2019-04-23T16:10:35.918Z,20.40
2019-04-23T16:20:34.768Z,20.19
2019-04-23T16:30:18.734Z,19.97
2019-04-23T16:40:32.705Z,19.69
2019-04-23T17:00:29.294Z,19.32
2019-04-23T17:10:27.829Z,19.14
2019-04-23T17:20:37.046Z,18.96
2019-04-23T17:40:22.865Z,18.48
2019-04-23T17:50:31.752Z,18.05
2019-04-23T18:00:38.293Z,17.78
2019-04-23T18:10:35.768Z,17.33
2019-04-23T18:20:28.059Z,16.96
2019-04-23T18:40:28.289Z,16.31
2019-04-23T18:50:39.048Z,15.95
2019-04-23T19:00:44.944Z,15.74
2019-04-23T19:30:41.004Z,14.96
2019-04-23T19:40:37.341Z,14.61
2019-04-23T20:00:42.042Z,14.06
2019-04-23T20:10:32.769Z,13.97
2019-04-23T20:20:33.359Z,13.99
2019-04-23T20:30:40.177Z,13.75
2019-04-23T20:40:39.482Z,13.61
2019-04-23T21:00:25.514Z,13.24
2019-04-23T21:10:36.657Z,13.23
2019-04-23T21:20:36.250Z,13.24
2019-04-23T21:30:48.362Z,13.58
2019-04-23T21:40:51.031Z,14.20
2019-04-23T21:50:24.535Z,15.08
2019-04-23T22:00:35.928Z,15.19
2019-04-23T22:10:31.621Z,15.04
2019-04-23T22:20:31.043Z,15.00
2019-04-23T22:30:30.173Z,14.93
2019-04-23T22:40:34.176Z,14.92
2019-04-23T23:00:22.415Z,14.95
2019-04-23T23:10:26.465Z,14.78
2019-04-23T23:20:34.642Z,14.48
2019-04-23T23:30:35.743Z,14.16
2019-04-23T23:40:24.936Z,14.34
